Time;durP1;ratioP1;P1;durP2;ratioP2;P2;SDS_P1;SDS_P2;PMS_P1;PMS_P2;Temp;Humidity;BMP_temperature;BMP_pressure;BME280_temperature;BME280_humidity;BME280_pressure;Samples;Min_cycle;Max_cycle;Signal;HPM_P1;HPM_P2
2022/10/19 00:01:09;;;;;;;;;;;;;;;15.26;64.13;99149.60;1679549;84;20388;-69
2022/10/19 00:03:36;;;;;;;;;;;;;;;15.28;64.22;99147.53;1666997;85;21122;-69
2022/10/19 00:06:13;;;;;;;;;;;;;;;15.32;64.28;99141.57;1663018;85;20086;-69
2022/10/19 00:08:42;;;;;;;;;;;;;;;15.38;64.31;99153.31;1694480;84;20094;-69
2022/10/19 00:11:08;;;;;;;;;;;;;;;15.42;64.39;99154.02;1696235;84;20638;-69
2022/10/19 00:13:35;;;;;;;;;;;;;;;15.49;64.45;99154.56;1676833;84;20146;-69
2022/10/19 00:16:09;;;;;;;;;;;;;;;15.55;64.46;99159.91;1675138;84;20802;-69
2022/10/19 00:18:35;;;;;;;;;;;;;;;15.61;64.43;99160.92;1678453;84;20087;-68
2022/10/19 00:21:04;;;;;;;;;;;;;;;15.65;64.37;99148.22;1696888;84;20104;-69
2022/10/19 00:23:31;;;;;;;;;;;;;;;15.70;64.39;99151.60;1690226;84;20505;-69
2022/10/19 00:25:57;;;;;;;;;;;;;;;15.72;64.37;99153.03;1673106;84;20592;-69
2022/10/19 00:28:23;;;;;;;;;;;;;;;15.76;64.36;99154.28;1675184;85;21164;-69
2022/10/19 00:30:50;;;;;;;;;;;;;;;15.80;64.42;99160.85;1676703;85;20465;-69
2022/10/19 00:33:20;;;;;;;;;;;;;;;15.82;64.50;99153.95;1686728;84;20168;-69
2022/10/19 00:35:50;;;;;;;;;;;;;;;15.84;64.58;99156.73;1678761;85;20087;-69
2022/10/19 00:38:17;;;;;;;;;;;;;;;15.85;64.64;99145.49;1667346;84;20119;-69
2022/10/19 00:40:45;;;;;;;;;;;;;;;15.86;64.82;99148.46;1675482;84;22182;-69
2022/10/19 00:43:16;;;;;;;;;;;;;;;15.86;65.06;99143.09;1685599;84;20433;-70
2022/10/19 00:45:43;;;;;;;;;;;;;;;15.86;65.43;99138.56;1664880;85;20145;-69
2022/10/19 00:48:11;;;;;;;;;;;;;;;15.89;65.79;99145.36;1671846;85;20142;-69
2022/10/19 00:50:37;;;;;;;;;;;;;;;15.90;66.10;99141.11;1669795;84;20126;-69
2022/10/19 00:53:04;;;;;;;;;;;;;;;15.92;66.37;99143.09;1689353;84;21150;-69
2022/10/19 00:55:31;;;;;;;;;;;;;;;15.92;66.62;99140.41;1684259;85;20102;-69
2022/10/19 00:57:57;;;;;;;;;;;;;;;15.91;66.94;99129.36;1663117;85;20105;-69
2022/10/19 01:00:23;;;;;;;;;;;;;;;15.88;67.21;99120.90;1686500;84;20185;-69
2022/10/19 01:02:50;;;;;;;;;;;;;;;15.82;67.44;99105.68;1690993;85;20464;-69
2022/10/19 01:05:16;;;;;;;;;;;;;;;15.76;67.59;99115.91;1670438;84;21779;-69
2022/10/19 01:07:42;;;;;;;;;;;;;;;15.73;67.69;99106.42;1690095;84;20088;-69
2022/10/19 01:10:09;;;;;;;;;;;;;;;15.73;67.71;99113.13;1700443;84;20098;-69
2022/10/19 01:12:39;;;;;;;;;;;;;;;15.75;67.63;99118.27;1696723;84;20092;-69
2022/10/19 01:15:23;;;;;;;;;;;;;;;15.76;67.52;99130.14;1673992;85;20115;-69
2022/10/19 01:18:00;;;;;;;;;;;;;;;15.76;67.42;99132.00;1681647;84;20112;-69
2022/10/19 01:20:50;;;;;;;;;;;;;;;15.77;67.30;99152.42;1700878;84;20086;-69
2022/10/19 01:23:43;;;;;;;;;;;;;;;15.78;67.13;99162.93;1693792;84;20099;-69
2022/10/19 01:26:46;;;;;;;;;;;;;;;15.75;67.07;99185.31;1685730;84;20632;-69
2022/10/19 01:29:19;;;;;;;;;;;;;;;15.71;66.86;99192.98;1688549;84;20099;-69
2022/10/19 01:32:05;;;;;;;;;;;;;;;15.67;66.71;99190.39;1698541;84;21309;-69
2022/10/19 01:34:41;;;;;;;;;;;;;;;15.66;66.65;99195.97;1684733;85;20447;-69
2022/10/19 01:37:23;;;;;;;;;;;;;;;15.63;66.59;99200.41;1663293;85;20078;-69
2022/10/19 01:40:02;;;;;;;;;;;;;;;15.58;66.62;99194.34;1690642;84;20185;-69
2022/10/19 01:42:47;;;;;;;;;;;;;;;15.56;66.67;99194.24;1695972;84;20096;-69
2022/10/19 01:45:22;;;;;;;;;;;;;;;15.51;66.83;99192.20;1665848;85;22141;-69
2022/10/19 01:47:53;;;;;;;;;;;;;;;15.49;67.02;99176.02;1670489;85;20139;-69
2022/10/19 01:50:37;;;;;;;;;;;;;;;15.48;67.17;99185.08;1663074;85;20149;-69
2022/10/19 01:53:04;;;;;;;;;;;;;;;15.47;67.22;99206.20;1659158;85;20099;-68
2022/10/19 01:55:31;;;;;;;;;;;;;;;15.46;67.24;99201.35;1662944;85;20086;-68
2022/10/19 01:58:06;;;;;;;;;;;;;;;15.43;67.36;99214.63;1681001;84;21162;-69
2022/10/19 02:00:34;;;;;;;;;;;;;;;15.38;67.32;99202.91;1692675;84;20413;-70
2022/10/19 02:03:02;;;;;;;;;;;;;;;15.33;67.32;99198.65;1649525;86;20087;-69
2022/10/19 02:05:31;;;;;;;;;;;;;;;15.28;67.20;99194.43;1667247;84;20149;-69
2022/10/19 02:08:01;;;;;;;;;;;;;;;15.19;67.24;99201.05;1661570;85;20160;-69
2022/10/19 02:10:27;;;;;;;;;;;;;;;15.14;67.34;99212.89;1672266;85;21248;-68
2022/10/19 02:12:55;;;;;;;;;;;;;;;15.10;67.29;99229.05;1677516;84;20087;-68
2022/10/19 02:15:23;;;;;;;;;;;;;;;15.03;67.26;99230.91;1637251;84;20095;-68
2022/10/19 02:17:51;;;;;;;;;;;;;;;14.99;67.24;99237.19;1682382;85;20268;-69
2022/10/19 02:20:18;;;;;;;;;;;;;;;14.95;67.12;99237.30;1689998;84;20100;-69
2022/10/19 02:22:44;;;;;;;;;;;;;;;14.90;66.86;99240.27;1677168;84;21146;-69
2022/10/19 02:25:10;;;;;;;;;;;;;;;14.87;66.77;99237.48;1676988;85;20132;-69
2022/10/19 02:27:39;;;;;;;;;;;;;;;14.83;66.70;99237.59;1682318;85;20104;-68
2022/10/19 02:30:07;;;;;;;;;;;;;;;14.77;66.69;99243.24;1688293;84;20083;-68
2022/10/19 02:32:34;;;;;;;;;;;;;;;14.72;66.74;99234.99;1680814;84;20101;-68
2022/10/19 02:35:00;;;;;;;;;;;;;;;14.67;66.80;99236.11;1689847;84;21151;-69
2022/10/19 02:37:26;;;;;;;;;;;;;;;14.63;66.98;99230.84;1682336;85;20100;-69
2022/10/19 02:39:52;;;;;;;;;;;;;;;14.60;67.18;99228.56;1676403;85;20080;-69
2022/10/19 02:42:25;;;;;;;;;;;;;;;14.58;67.35;99238.65;1677777;84;20107;-69
2022/10/19 02:45:01;;;;;;;;;;;;;;;14.57;67.50;99238.33;1679601;85;20127;-68
2022/10/19 02:47:37;;;;;;;;;;;;;;;14.54;67.60;99238.75;1681843;84;21260;-69
2022/10/19 02:50:07;;;;;;;;;;;;;;;14.51;67.85;99241.83;1673894;84;20094;-69
2022/10/19 02:52:38;;;;;;;;;;;;;;;14.48;68.02;99244.07;1672603;85;20413;-69
2022/10/19 02:55:05;;;;;;;;;;;;;;;14.43;68.27;99242.00;1679486;85;20100;-69
2022/10/19 02:57:31;;;;;;;;;;;;;;;14.40;68.53;99246.92;1682453;85;20114;-69
2022/10/19 02:59:58;;;;;;;;;;;;;;;14.35;68.82;99246.19;1674070;84;21168;-69
2022/10/19 03:02:25;;;;;;;;;;;;;;;14.34;69.01;99254.43;1679039;85;20437;-69
2022/10/19 03:04:52;;;;;;;;;;;;;;;14.30;69.16;99253.96;1673925;85;20090;-69
2022/10/19 03:07:21;;;;;;;;;;;;;;;14.29;69.35;99248.28;1671287;84;20092;-69
2022/10/19 03:09:47;;;;;;;;;;;;;;;14.31;69.52;99255.66;1677326;85;20109;-69
2022/10/19 03:12:14;;;;;;;;;;;;;;;14.32;69.61;99255.95;1675952;85;21171;-68
2022/10/19 03:14:40;;;;;;;;;;;;;;;14.38;69.65;99258.34;1673856;84;20484;-69
2022/10/19 03:17:06;;;;;;;;;;;;;;;14.36;69.73;99255.88;1672435;85;20447;-68
2022/10/19 03:19:33;;;;;;;;;;;;;;;14.39;69.82;99264.02;1679522;85;20100;-68
2022/10/19 03:22:00;;;;;;;;;;;;;;;14.41;69.90;99269.99;1678449;85;20141;-69
2022/10/19 03:24:26;;;;;;;;;;;;;;;14.44;69.87;99270.94;1671980;85;20572;-69
2022/10/19 03:26:52;;;;;;;;;;;;;;;14.44;69.93;99267.75;1681144;85;20120;-69
2022/10/19 03:29:19;;;;;;;;;;;;;;;14.44;69.96;99265.08;1672927;85;20153;-69
2022/10/19 03:31:47;;;;;;;;;;;;;;;14.45;70.04;99266.70;1665601;86;20178;-69
2022/10/19 03:34:13;;;;;;;;;;;;;;;14.46;70.08;99270.22;1623243;85;20118;-69
2022/10/19 03:36:40;;;;;;;;;;;;;;;14.49;70.14;99267.14;1687649;85;21260;-69
2022/10/19 03:39:09;;;;;;;;;;;;;;;14.52;70.10;99269.42;1658008;86;20130;-68
2022/10/19 03:41:36;;;;;;;;;;;;;;;14.52;70.14;99266.75;1667510;85;20402;-69
2022/10/19 03:44:02;;;;;;;;;;;;;;;14.51;70.21;99264.58;1668495;86;20604;-69
2022/10/19 03:46:29;;;;;;;;;;;;;;;14.51;70.23;99258.39;1685730;83;20144;-69
2022/10/19 03:48:55;;;;;;;;;;;;;;;14.49;70.27;99257.27;1663922;85;21244;-69
2022/10/19 03:51:23;;;;;;;;;;;;;;;14.51;70.30;99251.20;1668853;86;20120;-69
2022/10/19 03:53:53;;;;;;;;;;;;;;;14.53;70.28;99259.02;1634689;85;20441;-69
2022/10/19 03:56:22;;;;;;;;;;;;;;;14.52;70.21;99258.18;1642838;85;20142;-69
2022/10/19 03:58:49;;;;;;;;;;;;;;;14.49;70.36;99257.27;1623761;85;20142;-69
2022/10/19 04:01:21;;;;;;;;;;;;;;;14.51;70.46;99251.70;1681277;83;21148;-69
2022/10/19 04:03:49;;;;;;;;;;;;;;;14.51;70.46;99249.86;1654292;84;20265;-69
2022/10/19 04:06:16;;;;;;;;;;;;;;;14.51;70.51;99242.34;1645524;86;20136;-69
2022/10/19 04:08:43;;;;;;;;;;;;;;;14.51;70.54;99244.50;1671214;84;20127;-69
2022/10/19 04:11:12;;;;;;;;;;;;;;;14.46;70.56;99242.11;1657145;84;20190;-69
2022/10/19 04:13:39;;;;;;;;;;;;;;;14.42;70.71;99241.68;1666030;84;21686;-69
2022/10/19 04:16:07;;;;;;;;;;;;;;;14.37;70.75;99246.80;1659116;84;20130;-68
2022/10/19 04:18:33;;;;;;;;;;;;;;;14.30;70.94;99240.58;1673413;84;20116;-68
2022/10/19 04:21:01;;;;;;;;;;;;;;;14.17;71.41;99247.21;1680301;84;20148;-69
2022/10/19 04:23:30;;;;;;;;;;;;;;;14.14;71.72;99244.42;1669782;85;20158;-68
2022/10/19 04:26:02;;;;;;;;;;;;;;;14.15;71.91;99247.92;1659295;84;22262;-69
2022/10/19 04:28:29;;;;;;;;;;;;;;;14.17;72.00;99253.39;1670288;84;20100;-68
2022/10/19 04:30:56;;;;;;;;;;;;;;;14.19;72.13;99248.66;1676021;84;20104;-68
2022/10/19 04:33:24;;;;;;;;;;;;;;;14.22;72.21;99250.11;1665429;84;20431;-68
2022/10/19 04:36:00;;;;;;;;;;;;;;;14.24;72.29;99251.56;1674448;84;20108;-69
2022/10/19 04:38:27;;;;;;;;;;;;;;;14.25;72.35;99256.41;1667907;84;21449;-69
2022/10/19 04:40:55;;;;;;;;;;;;;;;14.26;72.46;99261.25;1677940;84;20195;-69
2022/10/19 04:43:21;;;;;;;;;;;;;;;14.28;72.48;99252.52;1677255;84;20100;-71
2022/10/19 04:45:48;;;;;;;;;;;;;;;14.27;72.45;99257.03;1672170;85;20082;-69
2022/10/19 04:48:14;;;;;;;;;;;;;;;14.26;72.49;99245.20;1659251;84;20431;-70
2022/10/19 04:50:40;;;;;;;;;;;;;;;14.27;72.55;99243.65;1674356;85;21160;-70
2022/10/19 04:53:06;;;;;;;;;;;;;;;14.28;72.57;99243.98;1681676;85;20128;-70
2022/10/19 04:55:33;;;;;;;;;;;;;;;14.27;72.61;99246.33;1626530;85;20110;-69
2022/10/19 04:57:59;;;;;;;;;;;;;;;14.26;72.64;99246.00;1674479;85;20273;-69
2022/10/19 05:00:26;;;;;;;;;;;;;;;14.27;72.63;99250.34;1679196;83;20177;-70
2022/10/19 05:02:52;;;;;;;;;;;;;;;14.27;72.71;99244.16;1693375;84;21251;-70
2022/10/19 05:05:18;;;;;;;;;;;;;;;14.26;72.78;99232.63;1670136;84;20122;-69
2022/10/19 05:07:47;;;;;;;;;;;;;;;14.27;72.80;99240.14;1670272;84;20074;-70
2022/10/19 05:10:15;;;;;;;;;;;;;;;14.26;72.83;99239.31;1661857;84;20263;-69
2022/10/19 05:12:42;;;;;;;;;;;;;;;14.27;72.90;99242.31;1675991;84;20118;-70
2022/10/19 05:15:10;;;;;;;;;;;;;;;14.28;72.93;99242.64;1670192;84;21183;-71
2022/10/19 05:17:36;;;;;;;;;;;;;;;14.27;72.97;99234.28;1695988;84;20105;-69
2022/10/19 05:20:03;;;;;;;;;;;;;;;14.26;73.07;99235.30;1674217;84;20074;-70
2022/10/19 05:22:30;;;;;;;;;;;;;;;14.28;73.06;99230.59;1696230;84;20184;-70
2022/10/19 05:24:56;;;;;;;;;;;;;;;14.29;73.04;99232.23;1706790;84;20176;-70
2022/10/19 05:27:26;;;;;;;;;;;;;;;14.29;73.06;99233.56;1698480;84;21298;-70
2022/10/19 05:29:52;;;;;;;;;;;;;;;14.29;73.03;99229.55;1704053;84;20533;-70
2022/10/19 05:32:18;;;;;;;;;;;;;;;14.31;73.05;99234.72;1676154;84;20081;-70
2022/10/19 05:34:45;;;;;;;;;;;;;;;14.33;73.16;99235.38;1690413;84;20118;-68
2022/10/19 05:37:11;;;;;;;;;;;;;;;14.33;73.12;99238.05;1703206;84;20411;-70
2022/10/19 05:39:38;;;;;;;;;;;;;;;14.33;73.14;99238.87;1680106;84;22054;-72
2022/10/19 05:42:04;;;;;;;;;;;;;;;14.34;73.24;99238.37;1693536;84;20118;-70
2022/10/19 05:44:30;;;;;;;;;;;;;;;14.34;73.25;99233.83;1700568;84;20200;-70
2022/10/19 05:47:00;;;;;;;;;;;;;;;14.34;73.29;99228.47;1703417;84;20142;-71
2022/10/19 05:49:26;;;;;;;;;;;;;;;14.36;73.30;99228.29;1682467;84;20136;-69
2022/10/19 05:51:53;;;;;;;;;;;;;;;14.37;73.34;99227.25;1704669;84;21166;-71
2022/10/19 05:54:21;;;;;;;;;;;;;;;14.38;73.38;99229.73;1685520;84;20123;-69
2022/10/19 05:56:47;;;;;;;;;;;;;;;14.40;73.39;99239.72;1672792;84;20137;-69
2022/10/19 05:59:15;;;;;;;;;;;;;;;14.43;73.39;99240.66;1705114;84;20105;-69
2022/10/19 06:01:42;;;;;;;;;;;;;;;14.47;73.32;99237.88;1706502;83;20103;-74
2022/10/19 06:04:09;;;;;;;;;;;;;;;14.49;73.23;99237.20;1695588;84;21076;-68
2022/10/19 06:06:36;;;;;;;;;;;;;;;14.48;73.25;99240.89;1689425;84;20092;-68
2022/10/19 06:09:03;;;;;;;;;;;;;;;14.49;73.23;99237.70;1678361;83;20130;-68
2022/10/19 06:11:33;;;;;;;;;;;;;;;14.45;73.25;99233.25;1681007;83;20172;-68
2022/10/19 06:14:03;;;;;;;;;;;;;;;14.40;73.37;99234.37;1673664;83;20122;-68
2022/10/19 06:16:30;;;;;;;;;;;;;;;14.36;73.56;99235.81;1671423;83;21151;-68
2022/10/19 06:18:58;;;;;;;;;;;;;;;14.35;73.59;99234.15;1684407;83;20113;-68
2022/10/19 06:21:28;;;;;;;;;;;;;;;14.45;73.80;99231.91;1670087;83;20090;-68
2022/10/19 06:23:55;;;;;;;;;;;;;;;14.75;74.38;99230.58;1688469;84;20428;-68
2022/10/19 06:26:22;;;;;;;;;;;;;;;15.15;74.01;99225.24;1682703;84;20160;-68
2022/10/19 06:28:49;;;;;;;;;;;;;;;15.50;72.83;99224.05;1707799;84;21165;-68
2022/10/19 06:31:16;;;;;;;;;;;;;;;15.74;71.82;99222.06;1679432;83;20491;-68
2022/10/19 06:33:43;;;;;;;;;;;;;;;15.93;70.47;99210.44;1686538;83;20428;-74
2022/10/19 06:36:22;;;;;;;;;;;;;;;16.03;69.35;99214.84;1685496;84;20198;-72
2022/10/19 06:38:48;;;;;;;;;;;;;;;16.07;68.66;99205.86;1693877;84;20229;-70
2022/10/19 06:41:14;;;;;;;;;;;;;;;16.11;67.95;99212.98;1681021;84;21229;-71
2022/10/19 06:43:42;;;;;;;;;;;;;;;16.09;67.55;99207.81;1701866;84;20123;-70
2022/10/19 06:46:13;;;;;;;;;;;;;;;16.06;67.29;99206.89;1703595;84;20123;-70
2022/10/19 06:48:40;;;;;;;;;;;;;;;16.06;67.21;99203.69;1673631;83;20127;-72
2022/10/19 06:51:06;;;;;;;;;;;;;;;16.08;67.09;99208.03;1672241;84;20095;-71
2022/10/19 06:53:34;;;;;;;;;;;;;;;16.12;67.07;99193.97;1688450;84;21227;-72
2022/10/19 06:56:01;;;;;;;;;;;;;;;16.18;67.11;99194.98;1699495;84;20176;-79
2022/10/19 06:58:29;;;;;;;;;;;;;;;16.25;67.07;99195.26;1698886;83;20115;-83
2022/10/19 07:00:56;;;;;;;;;;;;;;;16.49;66.96;99191.84;1681669;84;20106;-79
2022/10/19 07:03:24;;;;;;;;;;;;;;;16.93;66.89;99188.80;1679473;84;20427;-77
2022/10/19 07:05:55;;;;;;;;;;;;;;;17.52;65.76;99185.08;1705612;84;21232;-77
2022/10/19 07:08:22;;;;;;;;;;;;;;;18.17;64.49;99170.64;1684952;84;20089;-77
2022/10/19 07:10:51;;;;;;;;;;;;;;;18.89;62.21;99173.69;1683888;84;20485;-76
2022/10/19 07:13:17;;;;;;;;;;;;;;;19.58;60.26;99175.12;1681484;84;20131;-76
2022/10/19 07:15:45;;;;;;;;;;;;;;;20.25;57.74;99165.55;1699303;84;20154;-76
2022/10/19 07:18:12;;;;;;;;;;;;;;;20.80;54.95;99166.30;1692044;84;21161;-76
2022/10/19 07:20:39;;;;;;;;;;;;;;;21.19;52.98;99161.85;1688120;84;20099;-75
2022/10/19 07:23:05;;;;;;;;;;;;;;;21.43;51.17;99160.06;1690022;84;20168;-75
2022/10/19 07:25:35;;;;;;;;;;;;;;;21.58;50.20;99160.84;1694324;84;20428;-76
2022/10/19 07:28:01;;;;;;;;;;;;;;;21.86;49.24;99167.48;1691325;84;20416;-76
2022/10/19 07:30:29;;;;;;;;;;;;;;;21.96;48.17;99155.42;1696824;84;21171;-71
2022/10/19 07:32:56;;;;;;;;;;;;;;;21.87;47.00;99153.41;1693633;84;20428;-67
2022/10/19 07:35:24;;;;;;;;;;;;;;;21.66;46.71;99153.64;1699337;84;20444;-69
2022/10/19 07:37:50;;;;;;;;;;;;;;;21.58;46.86;99162.19;1698083;84;20178;-73
2022/10/19 07:40:17;;;;;;;;;;;;;;;21.62;46.61;99153.02;1681156;84;20103;-72
2022/10/19 07:42:43;;;;;;;;;;;;;;;21.58;46.42;99151.36;1680678;84;21817;-71
2022/10/19 07:45:10;;;;;;;;;;;;;;;21.53;46.02;99156.70;1707945;84;20094;-72
2022/10/19 07:47:36;;;;;;;;;;;;;;;21.43;45.76;99157.35;1713387;84;20409;-70
2022/10/19 07:50:03;;;;;;;;;;;;;;;21.36;45.64;99156.71;1699317;84;20490;-72
2022/10/19 07:52:30;;;;;;;;;;;;;;;21.34;45.43;99156.15;1670206;84;20094;-71
2022/10/19 07:54:56;;;;;;;;;;;;;;;21.47;44.98;99145.51;1670360;84;21320;-71
2022/10/19 07:57:23;;;;;;;;;;;;;;;21.47;44.80;99146.86;1680289;84;20122;-71
2022/10/19 07:59:49;;;;;;;;;;;;;;;21.36;44.86;99142.36;1670404;84;20094;-72
2022/10/19 08:02:16;;;;;;;;;;;;;;;21.21;44.92;99152.42;1670108;84;20423;-71
2022/10/19 08:04:43;;;;;;;;;;;;;;;20.99;44.87;99139.86;1670256;84;20110;-72
2022/10/19 08:07:10;;;;;;;;;;;;;;;20.72;44.79;99146.42;1670277;84;21568;-71
2022/10/19 08:09:37;;;;;;;;;;;;;;;20.42;45.21;99139.09;1670287;84;20123;-72
2022/10/19 08:12:05;;;;;;;;;;;;;;;20.22;45.68;99144.39;1690182;84;20097;-72
2022/10/19 08:14:32;;;;;;;;;;;;;;;20.05;45.88;99146.19;1670262;84;20610;-73
2022/10/19 08:16:59;;;;;;;;;;;;;;;19.79;46.35;99145.36;1670423;84;20086;-72
2022/10/19 08:19:25;;;;;;;;;;;;;;;19.54;46.83;99146.16;1712419;84;21199;-70
2022/10/19 08:21:51;;;;;;;;;;;;;;;19.36;47.42;99144.39;1713235;84;21080;-71
2022/10/19 08:24:18;;;;;;;;;;;;;;;19.24;47.84;99145.45;1675379;84;20093;-72
2022/10/19 08:26:45;;;;;;;;;;;;;;;19.11;48.21;99147.81;1670209;84;20098;-71
2022/10/19 08:29:13;;;;;;;;;;;;;;;18.97;48.69;99149.93;1674538;84;20090;-70
2022/10/19 08:31:42;;;;;;;;;;;;;;;18.97;49.00;99149.11;1706992;83;21165;-72
2022/10/19 08:34:10;;;;;;;;;;;;;;;19.10;49.00;99143.50;1677404;84;20130;-72
2022/10/19 08:36:37;;;;;;;;;;;;;;;19.18;48.56;99136.41;1670318;84;20097;-71
2022/10/19 08:39:05;;;;;;;;;;;;;;;19.12;48.35;99141.38;1670225;84;20098;-72
2022/10/19 08:42:02;;;;;;;;;;;;;;;19.06;48.09;99136.91;1673414;84;20106;-72
2022/10/19 08:44:39;;;;;;;;;;;;;;;18.94;47.70;99124.78;1704727;84;21141;-71
2022/10/19 08:47:30;;;;;;;;;;;;;;;18.94;47.10;99137.44;1698664;84;20131;-72
2022/10/19 08:49:57;;;;;;;;;;;;;;;19.05;46.68;99132.07;1676205;84;20413;-71
2022/10/19 08:52:25;;;;;;;;;;;;;;;19.17;46.31;99130.72;1685154;84;20133;-71
2022/10/19 08:54:56;;;;;;;;;;;;;;;19.22;45.79;99128.66;1683393;83;20118;-71
2022/10/19 08:57:32;;;;;;;;;;;;;;;19.23;45.66;99127.09;1680383;84;21217;-71
2022/10/19 09:00:21;;;;;;;;;;;;;;;19.18;45.71;99127.50;1670348;84;20114;-71
2022/10/19 09:02:52;;;;;;;;;;;;;;;19.06;45.77;99125.61;1678348;84;20440;-73
2022/10/19 09:05:34;;;;;;;;;;;;;;;18.91;45.64;99122.55;1673006;84;20094;-73
2022/10/19 09:08:01;;;;;;;;;;;;;;;18.75;45.58;99121.04;1692871;84;20161;-72
2022/10/19 09:10:30;;;;;;;;;;;;;;;18.62;45.61;99123.94;1694474;84;21533;-73
2022/10/19 09:12:59;;;;;;;;;;;;;;;18.51;45.78;99120.71;1695391;84;20086;-73
2022/10/19 09:15:35;;;;;;;;;;;;;;;18.42;46.02;99118.31;1671295;84;20097;-72
2022/10/19 09:18:02;;;;;;;;;;;;;;;18.53;46.51;99119.95;1687109;84;20430;-72
2022/10/19 09:20:33;;;;;;;;;;;;;;;18.86;46.55;99103.56;1690480;84;20103;-72
2022/10/19 09:23:03;;;;;;;;;;;;;;;19.52;46.18;99107.30;1698734;84;21762;-72
2022/10/19 09:25:30;;;;;;;;;;;;;;;20.44;44.37;99096.47;1697724;84;20123;-72
2022/10/19 09:28:15;;;;;;;;;;;;;;;21.31;42.19;99090.36;1670627;84;20507;-72
2022/10/19 09:30:41;;;;;;;;;;;;;;;21.95;40.19;99086.08;1690170;84;20198;-73
2022/10/19 09:33:09;;;;;;;;;;;;;;;22.13;38.72;99084.39;1679029;84;20456;-72
2022/10/19 09:35:38;;;;;;;;;;;;;;;22.06;38.20;99092.43;1680405;84;21181;-72
2022/10/19 09:38:05;;;;;;;;;;;;;;;21.83;37.75;99096.20;1690133;84;20090;-72
2022/10/19 09:40:33;;;;;;;;;;;;;;;21.52;37.81;99090.93;1670203;84;20174;-72
2022/10/19 09:43:08;;;;;;;;;;;;;;;21.16;38.16;99096.08;1678746;84;20727;-72
2022/10/19 09:45:44;;;;;;;;;;;;;;;20.79;38.61;99097.90;1677369;84;20087;-71
2022/10/19 09:48:20;;;;;;;;;;;;;;;20.51;39.18;99098.48;1678405;84;21056;-74
2022/10/19 09:50:50;;;;;;;;;;;;;;;20.20;39.65;99096.55;1655889;84;20455;-72
2022/10/19 09:53:18;;;;;;;;;;;;;;;19.90;40.22;99101.86;1670722;84;20090;-72
2022/10/19 09:55:47;;;;;;;;;;;;;;;19.67;40.73;99095.48;1698502;84;20099;-72
2022/10/19 09:58:17;;;;;;;;;;;;;;;19.52;41.14;99092.46;1679979;84;20452;-72
2022/10/19 10:00:45;;;;;;;;;;;;;;;19.41;41.49;99094.64;1670180;84;21169;-73
2022/10/19 10:03:34;;;;;;;;;;;;;;;19.35;41.46;99093.36;1698691;83;20125;-72
2022/10/19 10:06:07;;;;;;;;;;;;;;;19.28;41.32;99092.16;1661532;83;20158;-72
2022/10/19 10:08:45;;;;;;;;;;;;;;;19.28;41.33;99092.16;1675597;84;20152;-71
2022/10/19 10:11:25;;;;;;;;;;;;;;;19.41;41.09;99083.84;1692319;83;20105;-73
2022/10/19 10:13:54;;;;;;;;;;;;;;;19.76;40.13;99085.14;1684267;83;20105;-71
2022/10/19 10:16:22;;;;;;;;;;;;;;;20.12;38.18;99082.61;1693054;83;20125;-72
2022/10/19 10:18:57;;;;;;;;;;;;;;;20.22;37.03;99082.80;1688269;83;20121;-74
2022/10/19 10:21:25;;;;;;;;;;;;;;;20.13;36.56;99096.38;1701949;83;20117;-72
2022/10/19 10:24:00;;;;;;;;;;;;;;;19.94;36.24;99090.89;1695552;83;20122;-73
2022/10/19 10:26:26;;;;;;;;;;;;;;;19.75;36.48;99090.76;1702966;83;21157;-72
2022/10/19 10:28:53;;;;;;;;;;;;;;;19.57;36.60;99085.82;1675561;84;20130;-72
2022/10/19 10:31:27;;;;;;;;;;;;;;;19.42;36.90;99084.13;1675761;84;20169;-71
2022/10/19 10:34:04;;;;;;;;;;;;;;;19.24;37.32;99090.17;1675717;84;20098;-74
2022/10/19 10:36:32;;;;;;;;;;;;;;;19.08;37.67;99083.05;1675839;84;20419;-72
2022/10/19 10:39:02;;;;;;;;;;;;;;;18.91;37.93;99074.56;1675634;84;21154;-74
2022/10/19 10:41:30;;;;;;;;;;;;;;;18.79;38.06;99083.16;1683638;83;20111;-72
2022/10/19 10:43:58;;;;;;;;;;;;;;;18.69;38.10;99068.10;1718741;83;20090;-72
2022/10/19 10:46:27;;;;;;;;;;;;;;;18.61;38.53;99068.44;1689140;83;20134;-72
2022/10/19 10:49:04;;;;;;;;;;;;;;;18.50;38.92;99068.70;1684070;84;20089;-72
2022/10/19 10:51:39;;;;;;;;;;;;;;;18.44;39.26;99069.06;1675788;84;21171;-72
2022/10/19 10:54:21;;;;;;;;;;;;;;;18.42;39.58;99067.66;1689974;83;20090;-71
2022/10/19 10:57:03;;;;;;;;;;;;;;;18.39;39.88;99066.25;1688412;83;20121;-72
2022/10/19 10:59:36;;;;;;;;;;;;;;;18.30;40.28;99073.00;1718774;83;20153;-72
2022/10/19 11:02:06;;;;;;;;;;;;;;;18.18;40.77;99076.19;1718735;83;20117;-73
2022/10/19 11:04:38;;;;;;;;;;;;;;;18.07;41.42;99070.77;1684842;83;21931;-73
2022/10/19 11:07:15;;;;;;;;;;;;;;;17.96;42.16;99070.19;1708706;83;20125;-73
2022/10/19 11:09:52;;;;;;;;;;;;;;;17.84;42.80;99072.30;1704935;84;20102;-71
2022/10/19 11:12:20;;;;;;;;;;;;;;;17.72;43.33;99071.94;1709313;83;20544;-73
2022/10/19 11:14:52;;;;;;;;;;;;;;;17.60;43.74;99067.00;1675719;84;20125;-72
2022/10/19 11:17:24;;;;;;;;;;;;;;;17.49;44.21;99067.22;1678541;84;21160;-74
2022/10/19 11:19:52;;;;;;;;;;;;;;;17.40;44.58;99065.86;1691038;84;20141;-73
2022/10/19 11:22:40;;;;;;;;;;;;;;;17.31;44.90;99055.13;1678448;83;20122;-72
2022/10/19 11:25:42;;;;;;;;;;;;;;;17.29;45.21;99051.81;1696609;83;20439;-73
2022/10/19 11:28:39;;;;;;;;;;;;;;;17.32;45.25;99055.92;1683216;84;20097;-72
2022/10/19 11:31:21;;;;;;;;;;;;;;;17.38;45.17;99049.14;1710597;83;21150;-72
2022/10/19 11:34:26;;;;;;;;;;;;;;;17.42;45.08;99046.80;1690699;84;20125;-73
2022/10/19 11:36:56;;;;;;;;;;;;;;;17.48;44.93;99051.30;1683768;84;20097;-73
2022/10/19 11:39:35;;;;;;;;;;;;;;;17.57;44.89;99048.65;1675742;84;20193;-73
2022/10/19 11:42:08;;;;;;;;;;;;;;;17.75;44.71;99041.91;1695389;83;20120;-72
2022/10/19 11:44:44;;;;;;;;;;;;;;;17.89;44.13;99042.84;1691543;83;21092;-72
2022/10/19 11:47:20;;;;;;;;;;;;;;;17.98;43.87;99036.62;1684131;84;20271;-72
2022/10/19 11:50:16;;;;;;;;;;;;;;;18.03;43.57;99034.58;1694917;84;20087;-73
2022/10/19 11:52:50;;;;;;;;;;;;;;;18.04;43.55;99018.19;1690328;84;20117;-73
2022/10/19 11:55:28;;;;;;;;;;;;;;;18.15;43.25;99026.01;1675575;84;20114;-72
2022/10/19 11:58:25;;;;;;;;;;;;;;;18.16;42.95;99024.45;1698238;83;22017;-72
2022/10/19 12:01:13;;;;;;;;;;;;;;;18.15;42.76;99007.16;1704415;83;20462;-72
2022/10/19 12:03:52;;;;;;;;;;;;;;;18.19;42.57;99006.50;1672607;84;20082;-73
2022/10/19 12:06:24;;;;;;;;;;;;;;;18.25;42.21;99007.45;1672246;85;20221;-72
2022/10/19 12:09:01;;;;;;;;;;;;;;;18.29;41.73;98996.50;1697471;84;20106;-73
2022/10/19 12:11:51;;;;;;;;;;;;;;;18.30;41.71;99004.89;1694436;84;20090;-71
2022/10/19 12:14:24;;;;;;;;;;;;;;;18.34;41.65;99000.14;1693622;84;20091;-73
2022/10/19 12:16:54;;;;;;;;;;;;;;;18.32;41.82;99004.13;1695030;84;20121;-72
2022/10/19 12:19:25;;;;;;;;;;;;;;;18.26;42.17;98989.70;1687156;84;20126;-71
2022/10/19 12:21:54;;;;;;;;;;;;;;;18.19;42.49;98998.94;1680542;84;20141;-72
2022/10/19 12:24:22;;;;;;;;;;;;;;;18.13;42.98;98989.91;1693786;84;21582;-73
2022/10/19 12:26:51;;;;;;;;;;;;;;;18.06;43.30;98998.62;1694300;84;20434;-72
2022/10/19 12:29:20;;;;;;;;;;;;;;;17.95;43.81;98999.91;1671030;84;20143;-73
2022/10/19 12:31:47;;;;;;;;;;;;;;;17.79;44.29;99002.20;1694167;84;20125;-72
2022/10/19 12:34:21;;;;;;;;;;;;;;;17.59;44.45;98998.97;1694277;84;20191;-73
2022/10/19 12:36:54;;;;;;;;;;;;;;;17.40;44.46;98991.09;1694488;84;21142;-73
2022/10/19 12:39:27;;;;;;;;;;;;;;;17.23;44.64;98991.70;1694271;84;20097;-72
2022/10/19 12:42:14;;;;;;;;;;;;;;;17.12;44.87;98992.47;1698513;84;20077;-72
2022/10/19 12:45:05;;;;;;;;;;;;;;;16.99;45.51;98993.13;1700073;84;20134;-73
2022/10/19 12:47:32;;;;;;;;;;;;;;;16.92;46.22;98985.13;1694458;84;20160;-72
2022/10/19 12:49:59;;;;;;;;;;;;;;;16.89;46.90;98990.14;1694414;84;21137;-72
2022/10/19 12:52:44;;;;;;;;;;;;;;;16.85;47.30;98987.06;1694314;84;20121;-73
2022/10/19 12:55:16;;;;;;;;;;;;;;;16.76;47.89;98987.06;1694339;84;20446;-72
2022/10/19 12:57:47;;;;;;;;;;;;;;;16.67;48.50;98984.35;1693239;84;20450;-72
2022/10/19 13:00:30;;;;;;;;;;;;;;;16.61;49.09;98984.70;1668621;84;20497;-72
2022/10/19 13:03:04;;;;;;;;;;;;;;;16.58;49.66;98978.43;1660858;84;20122;-72
2022/10/19 13:05:32;;;;;;;;;;;;;;;16.52;49.93;98972.63;1698812;84;20122;-71